Time;durP1;ratioP1;P1;durP2;ratioP2;P2;SDS_P1;SDS_P2;PMS_P1;PMS_P2;Temp;Humidity;BMP_temperature;BMP_pressure;BME280_temperature;BME280_humidity;BME280_pressure;Samples;Min_cycle;Max_cycle;Signal;HPM_P1;HPM_P2
2022/06/20 00:02:19;;;;;;;;;30.50;30.25;;;;;22.48;100.00;100831.94;5100421;27;45600;-75
2022/06/20 00:04:46;;;;;;;;;37.75;31.75;;;;;22.45;100.00;100848.19;5102184;27;45463;-74
2022/06/20 00:07:12;;;;;;;;;33.00;31.00;;;;;22.46;100.00;100851.75;5118647;27;45344;-73
2022/06/20 00:09:38;;;;;;;;;30.00;29.25;;;;;22.46;100.00;100884.03;5118966;27;46382;-74
2022/06/20 00:12:04;;;;;;;;;30.00;28.25;;;;;22.47;100.00;100886.66;5118972;27;45300;-74
2022/06/20 00:14:29;;;;;;;;;38.25;31.25;;;;;22.47;100.00;100883.97;5100756;27;45429;-75
2022/06/20 00:16:54;;;;;;;;;33.25;31.25;;;;;22.47;100.00;100891.16;5118172;27;62343;-75
2022/06/20 00:19:20;;;;;;;;;29.25;27.50;;;;;22.47;100.00;100899.25;5118743;27;45989;-73
2022/06/20 00:21:45;;;;;;;;;30.50;27.75;;;;;22.46;100.00;100879.53;5118839;27;45494;-74
2022/06/20 00:24:10;;;;;;;;;33.00;31.25;;;;;22.44;100.00;100867.09;5118327;27;58731;-73
2022/06/20 00:26:36;;;;;;;;;36.00;31.25;;;;;22.41;100.00;100865.38;5118697;27;51260;-73
2022/06/20 00:29:06;;;;;;;;;32.75;29.50;;;;;22.36;100.00;100851.22;5118753;27;47321;-75
2022/06/20 00:31:32;;;;;;;;;29.75;29.75;;;;;22.36;100.00;100831.50;5118698;27;45404;-76
2022/06/20 00:33:57;;;;;;;;;35.50;31.75;;;;;22.33;100.00;100824.44;5118139;27;45319;-73
2022/06/20 00:36:23;;;;;;;;;30.75;29.25;;;;;22.29;100.00;100852.38;5118838;27;45479;-74
2022/06/20 00:38:52;;;;;;;;;32.33;28.33;;;;;22.27;100.00;100864.16;5100098;27;46207;-74
2022/06/20 00:41:22;;;;;;;;;30.75;29.50;;;;;22.26;100.00;100871.31;5118589;27;45339;-74
2022/06/20 00:43:51;;;;;;;;;29.75;27.75;;;;;22.25;100.00;100863.31;5118580;27;45357;-73
2022/06/20 00:46:38;;;;;;;;;32.50;27.25;;;;;22.22;100.00;100870.56;5100347;27;45414;-74
2022/06/20 00:49:28;;;;;;;;;33.50;30.75;;;;;22.23;100.00;100879.50;5099858;27;47473;-74
2022/06/20 00:52:22;;;;;;;;;37.00;32.25;;;;;22.22;100.00;100884.03;5118635;27;45434;-74
2022/06/20 00:55:11;;;;;;;;;34.75;30.25;;;;;22.21;100.00;100871.50;5100537;27;45384;-73
2022/06/20 00:57:51;;;;;;;;;36.00;31.50;;;;;22.22;100.00;100883.16;5099631;27;45346;-74
2022/06/20 01:00:23;;;;;;;;;32.75;30.25;;;;;22.19;100.00;100889.50;5100018;27;47749;-74
2022/06/20 01:03:02;;;;;;;;;31.75;30.50;;;;;22.21;100.00;100906.47;5093968;27;45846;-73
2022/06/20 01:05:42;;;;;;;;;32.33;28.67;;;;;22.20;100.00;100919.97;5117033;27;45268;-75
2022/06/20 01:08:14;;;;;;;;;29.33;27.33;;;;;22.17;100.00;100915.59;5099782;27;45295;-74
2022/06/20 01:10:56;;;;;;;;;31.75;30.75;;;;;22.17;100.00;100922.78;5117439;27;47697;-73
2022/06/20 01:13:23;;;;;;;;;33.75;30.50;;;;;22.14;100.00;100904.91;5118058;27;45467;-74
2022/06/20 01:15:51;;;;;;;;;32.50;30.00;;;;;22.11;100.00;100898.78;5099755;27;45441;-74
2022/06/20 01:18:24;;;;;;;;;30.00;28.00;;;;;22.10;100.00;100899.66;5117980;27;45678;-74
2022/06/20 01:20:52;;;;;;;;;34.00;30.00;;;;;22.08;100.00;100899.72;5118006;27;46665;-74
2022/06/20 01:23:41;;;;;;;;;30.67;28.67;;;;;22.05;100.00;100883.72;5099775;27;45608;-74
2022/06/20 01:26:34;;;;;;;;;36.25;28.75;;;;;22.05;100.00;100872.06;5107090;27;45283;-74
2022/06/20 01:29:03;;;;;;;;;29.00;26.00;;;;;22.05;100.00;100859.53;5118486;27;45355;-74
2022/06/20 01:31:36;;;;;;;;;29.50;28.50;;;;;22.05;100.00;100843.38;5117713;27;47558;-74
2022/06/20 01:34:02;;;;;;;;;29.50;26.50;;;;;22.04;100.00;100829.97;5117559;27;45410;-74
2022/06/20 01:39:14;;;;;;;;;33.00;31.33;;;;;22.01;100.00;100779.03;5102334;27;45386;-75
2022/06/20 01:44:23;;;;;;;;;37.75;31.00;;;;;22.00;100.00;100732.44;5117997;27;45311;-74
2022/06/20 01:46:49;;;;;;;;;31.00;29.00;;;;;21.96;100.00;100718.22;5116903;27;60261;-74
2022/06/20 01:49:20;;;;;;;;;33.00;27.00;;;;;21.96;100.00;100704.78;5118027;27;45467;-73
2022/06/20 01:52:06;;;;;;;;;32.50;28.50;;;;;21.94;100.00;100676.19;5117555;27;47214;-74
2022/06/20 01:54:41;;;;;;;;;35.50;28.25;;;;;21.91;100.00;100630.63;5117628;27;45515;-75
2022/06/20 01:57:09;;;;;;;;;25.50;23.75;;;;;21.89;100.00;100589.44;5099687;27;45377;-75
2022/06/20 01:59:59;;;;;;;;;27.33;27.33;;;;;21.87;100.00;100565.34;5117756;27;45627;-74
2022/06/20 02:02:27;;;;;;;;;29.33;27.33;;;;;21.82;100.00;100508.19;5098112;27;46715;-73
2022/06/20 02:04:52;;;;;;;;;27.00;23.00;;;;;21.81;100.00;100471.50;5117817;27;45587;-74
2022/06/20 02:07:18;;;;;;;;;25.67;24.33;;;;;21.80;100.00;100467.06;5119319;27;57279;-74
2022/06/20 02:09:43;;;;;;;;;19.33;19.33;;;;;21.75;100.00;100462.81;5117738;27;59872;-75
2022/06/20 02:12:10;;;;;;;;;25.33;24.67;;;;;21.74;100.00;100469.16;5120442;27;67661;-75
2022/06/20 02:14:51;;;;;;;;;27.00;27.00;;;;;21.67;100.00;100495.38;5102376;27;45611;-75
2022/06/20 02:17:20;;;;;;;;;27.00;25.33;;;;;21.63;100.00;100563.63;5102159;27;45302;-74
2022/06/20 02:19:48;;;;;;;;;29.67;26.00;;;;;21.60;100.00;100620.16;5121005;27;45216;-74
2022/06/20 02:22:15;;;;;;;;;26.00;22.67;;;;;21.60;100.00;100647.03;5102217;27;46753;-74
2022/06/20 02:24:43;;;;;;;;;27.67;22.67;;;;;21.57;100.00;100668.63;5102612;27;45417;-73
2022/06/20 02:27:21;;;;;;;;;29.00;27.00;;;;;21.56;100.00;100691.06;5121159;27;45347;-74
2022/06/20 02:29:46;;;;;;;;;27.25;24.50;;;;;21.55;100.00;100709.00;5102610;27;45448;-73
2022/06/20 02:32:18;;;;;;;;;27.00;26.00;;;;;21.55;100.00;100713.50;5119639;27;71825;-74
2022/06/20 02:34:44;;;;;;;;;23.00;23.00;;;;;21.54;100.00;100709.06;5101746;27;45458;-75
2022/06/20 02:37:11;;;;;;;;;26.00;25.00;;;;;21.52;100.00;100716.28;5120833;27;45209;-74
2022/06/20 02:39:39;;;;;;;;;27.67;23.33;;;;;21.54;100.00;100726.06;5102140;27;45538;-74
2022/06/20 02:42:09;;;;;;;;;25.33;22.00;;;;;21.50;100.00;100748.59;5120548;27;46575;-73
2022/06/20 02:44:41;;;;;;;;;24.00;23.67;;;;;21.49;100.00;100764.75;5102202;27;45485;-74
2022/06/20 02:47:08;;;;;;;;;27.67;23.00;;;;;21.49;100.00;100776.38;5102264;27;45495;-74
2022/06/20 02:49:34;;;;;;;;;25.33;22.67;;;;;21.49;100.00;100780.88;5102377;27;45584;-74
2022/06/20 02:52:00;;;;;;;;;25.67;24.67;;;;;21.45;100.00;100789.03;5102081;27;46349;-75
2022/06/20 02:54:28;;;;;;;;;25.00;18.67;;;;;21.41;100.00;100778.44;5102479;27;45521;-73
2022/06/20 02:57:09;;;;;;;;;27.33;26.00;;;;;21.39;100.00;100778.50;5102306;27;45268;-74
2022/06/20 02:59:43;;;;;;;;;27.00;26.00;;;;;21.40;100.00;100763.25;5102031;27;45484;-74
2022/06/20 03:02:10;;;;;;;;;29.00;26.50;;;;;21.40;100.00;100761.47;5101675;27;47649;-74
2022/06/20 03:04:37;;;;;;;;;22.67;21.67;;;;;21.38;100.00;100771.38;5087419;27;45443;-74
2022/06/20 03:07:10;;;;;;;;;27.00;23.00;;;;;21.41;100.00;100789.19;5121455;27;45449;-74
2022/06/20 03:09:41;;;;;;;;;24.33;24.33;;;;;21.39;100.00;100799.13;5101217;27;45302;-74
2022/06/20 03:12:07;;;;;;;;;29.25;25.75;;;;;21.36;100.00;100808.19;5101651;27;46858;-74
2022/06/20 03:14:46;;;;;;;;;26.00;24.00;;;;;21.34;100.00;100810.03;5102065;27;45436;-74
2022/06/20 03:17:13;;;;;;;;;29.67;28.33;;;;;21.34;100.00;100815.41;5119957;27;45332;-73
2022/06/20 03:19:42;;;;;;;;;31.00;26.25;;;;;21.33;100.00;100827.06;5101586;27;45499;-74
2022/06/20 03:22:09;;;;;;;;;30.67;26.33;;;;;21.34;100.00;100825.25;5119104;27;46766;-74
2022/06/20 03:24:36;;;;;;;;;25.75;24.00;;;;;21.34;100.00;100836.88;5101813;27;45299;-73
2022/06/20 03:27:03;;;;;;;;;24.67;23.67;;;;;21.32;100.00;100840.56;5102148;27;44760;-75
2022/06/20 03:29:29;;;;;;;;;25.33;23.67;;;;;21.32;100.00;100845.94;5101524;27;45501;-73
2022/06/20 03:31:55;;;;;;;;;28.67;25.33;;;;;21.35;100.00;100854.75;5120146;27;47438;-73
2022/06/20 03:34:21;;;;;;;;;36.67;28.00;;;;;21.34;100.00;100860.19;5119173;27;45310;-73
2022/06/20 03:36:48;;;;;;;;;36.50;30.75;;;;;21.30;100.00;100864.75;5119686;27;45378;-74
2022/06/20 03:39:16;;;;;;;;;27.00;23.75;;;;;21.26;100.00;100871.16;5120148;27;45215;-73
2022/06/20 03:41:41;;;;;;;;;30.00;28.50;;;;;21.24;100.00;100875.69;5119544;27;47669;-73
2022/06/20 03:44:18;;;;;;;;;31.00;28.00;;;;;21.17;100.00;100874.13;5119825;27;45270;-73
2022/06/20 03:46:56;;;;;;;;;29.75;27.75;;;;;21.17;100.00;100872.31;5119933;27;45311;-75
2022/06/20 03:49:27;;;;;;;;;35.00;28.50;;;;;21.16;100.00;100881.31;5101406;27;45504;-74
2022/06/20 03:52:04;;;;;;;;;36.75;30.75;;;;;21.14;100.00;100874.22;5101147;27;46440;-74
2022/06/20 03:54:38;;;;;;;;;30.00;27.25;;;;;21.14;100.00;100880.47;5101261;27;45544;-74
2022/06/20 03:57:20;;;;;;;;;34.50;29.75;;;;;21.14;100.00;100884.94;5119698;27;45386;-74
2022/06/20 03:59:48;;;;;;;;;34.75;30.50;;;;;21.12;100.00;100884.13;5101275;27;45613;-74
2022/06/20 04:02:19;;;;;;;;;32.00;29.67;;;;;21.10;100.00;100891.38;5100063;27;46501;-74
2022/06/20 04:04:58;;;;;;;;;34.00;31.67;;;;;21.10;100.00;100894.94;5104953;27;45508;-74
2022/06/20 04:07:30;;;;;;;;;30.33;28.67;;;;;21.09;100.00;100901.25;5105611;27;45439;-74
2022/06/20 04:13:23;;;;;;;;;32.00;28.75;;;;;21.03;100.00;100900.53;5119044;27;45912;-74
2022/06/20 04:15:51;;;;;;;;;28.33;27.33;;;;;21.01;100.00;100908.63;5050240;27;45395;-74
2022/06/20 04:18:29;;;;;;;;;30.00;28.50;;;;;21.02;100.00;100910.38;5119238;27;45397;-74
2022/06/20 04:20:57;;;;;;;;;26.33;25.33;;;;;21.02;100.00;100917.56;5100853;27;45485;-73
2022/06/20 04:23:34;;;;;;;;;31.00;29.00;;;;;20.98;100.00;100924.81;5118652;27;45757;-74
2022/06/20 04:26:17;;;;;;;;;25.67;23.00;;;;;20.95;100.00;100927.63;5118598;27;45345;-73
2022/06/20 04:28:49;;;;;;;;;30.00;29.75;;;;;20.95;100.00;100929.44;5118954;27;45443;-74
2022/06/20 04:31:25;;;;;;;;;27.75;24.50;;;;;20.96;100.00;100924.00;5100684;27;45467;-73
2022/06/20 04:33:50;;;;;;;;;26.25;25.00;;;;;20.97;100.00;100927.56;5117066;27;47613;-74
2022/06/20 04:36:38;;;;;;;;;26.00;26.00;;;;;20.95;100.00;100934.81;5118436;27;45316;-74
2022/06/20 04:39:14;;;;;;;;;29.50;27.00;;;;;20.94;100.00;100931.25;5119042;27;45361;-73
2022/06/20 04:41:49;;;;;;;;;24.75;24.75;;;;;20.93;100.00;100934.81;5118870;27;45545;-74
2022/06/20 04:44:25;;;;;;;;;27.67;26.00;;;;;20.92;100.00;100931.25;5099930;27;46634;-73
2022/06/20 04:47:11;;;;;;;;;29.00;22.50;;;;;20.91;100.00;100934.88;5107400;27;45609;-74
2022/06/20 04:49:37;;;;;;;;;32.25;25.75;;;;;20.95;100.00;100940.16;5120350;27;45328;-73
2022/06/20 04:52:03;;;;;;;;;29.50;24.25;;;;;20.97;100.00;100949.03;5118610;27;45271;-73
2022/06/20 04:54:29;;;;;;;;;26.75;25.50;;;;;20.98;100.00;100962.41;5117833;27;46309;-73
2022/06/20 04:56:55;;;;;;;;;28.33;27.33;;;;;21.02;100.00;100963.22;5117948;27;64983;-74
2022/06/20 04:59:24;;;;;;;;;25.33;22.67;;;;;21.04;100.00;100974.75;5100086;27;45596;-74
2022/06/20 05:01:49;;;;;;;;;25.33;23.00;;;;;21.04;100.00;100972.09;5100276;27;45551;-74
2022/06/20 05:04:27;;;;;;;;;25.00;24.00;;;;;21.06;100.00;100973.81;5115057;27;67292;-75
2022/06/20 05:06:53;;;;;;;;;28.00;24.67;;;;;21.07;100.00;100974.69;5120581;27;45520;-73
2022/06/20 05:09:30;;;;;;;;;24.00;23.67;;;;;21.09;100.00;100972.81;5099460;27;45403;-73
2022/06/20 05:12:02;;;;;;;;;22.33;20.00;;;;;21.09;100.00;100978.19;5100149;27;45530;-73
2022/06/20 05:14:48;;;;;;;;;25.00;20.00;;;;;21.11;100.00;100973.69;5117978;27;46634;-74
2022/06/20 05:17:18;;;;;;;;;27.67;22.00;;;;;21.10;100.00;100982.66;5099730;27;45536;-74
2022/06/20 05:19:47;;;;;;;;;28.00;24.00;;;;;21.10;100.00;100979.97;5099603;27;45358;-76
2022/06/20 05:22:35;;;;;;;;;20.67;18.67;;;;;21.09;100.00;100971.06;5090354;27;45419;-74
2022/06/20 05:25:05;;;;;;;;;22.67;18.67;;;;;21.12;100.00;100972.75;5112718;27;46552;-74
2022/06/20 05:27:40;;;;;;;;;22.00;17.00;;;;;21.15;100.00;100969.97;5117119;27;45414;-74
2022/06/20 05:30:07;;;;;;;;;21.67;19.00;;;;;21.17;100.00;100976.16;5099560;27;45556;-73
2022/06/20 05:32:54;;;;;;;;;18.67;16.00;;;;;21.18;100.00;100988.66;5099700;27;45341;-75
2022/06/20 05:36:12;;;;;;;;;23.33;21.00;;;;;21.22;100.00;100989.47;5098789;27;46885;-73
2022/06/20 05:38:52;;;;;;;;;22.33;19.33;;;;;21.20;100.00;100989.53;5000758;28;45419;-75
2022/06/20 05:41:18;;;;;;;;;19.33;16.67;;;;;21.19;100.00;101004.72;5099686;27;45421;-75
2022/06/20 05:43:44;;;;;;;;;18.33;16.33;;;;;21.19;100.00;101003.84;5117565;27;50247;-76
2022/06/20 05:46:17;;;;;;;;;19.00;15.67;;;;;21.18;100.00;101004.78;5121179;27;46184;-75
2022/06/20 05:48:52;;;;;;;;;20.00;17.00;;;;;21.18;100.00;101018.22;5103007;27;45322;-70
2022/06/20 05:51:20;;;;;;;;;19.00;16.33;;;;;21.05;100.00;101022.19;5118018;27;45512;-71
2022/06/20 05:53:52;;;;;;;;;25.33;20.00;;;;;20.90;100.00;101020.81;5099596;27;45636;-71
2022/06/20 05:56:26;;;;;;;;;18.00;16.33;;;;;20.78;100.00;101029.25;5101556;27;46293;-70
2022/06/20 05:58:53;;;;;;;;;22.00;19.33;;;;;20.66;100.00;101025.06;5101230;27;45407;-70
2022/06/20 06:01:22;;;;;;;;;17.67;16.67;;;;;20.55;100.00;101025.34;5102171;27;45509;-70
2022/06/20 06:04:19;;;;;;;;;19.67;15.67;;;;;20.48;100.00;101029.13;5199016;22;45636;-71
2022/06/20 06:06:50;;;;;;;;;16.33;13.67;;;;;20.41;100.00;101038.25;5115138;27;46700;-70
2022/06/20 06:09:27;;;;;;;;;19.33;16.00;;;;;20.36;100.00;101049.09;5120409;27;45468;-71
2022/06/20 06:12:00;;;;;;;;;19.67;14.67;;;;;20.31;100.00;101059.06;5118101;27;46505;-70
2022/06/20 06:14:31;;;;;;;;;20.33;15.00;;;;;20.26;100.00;101060.97;5116892;27;45503;-69
2022/06/20 06:17:17;;;;;;;;;15.00;14.00;;;;;20.20;100.00;101077.22;5116121;27;46648;-69
2022/06/20 06:19:59;;;;;;;;;18.00;17.33;;;;;20.14;100.00;101074.69;5099578;27;45527;-69
2022/06/20 06:22:32;;;;;;;;;16.33;14.33;;;;;20.10;100.00;101076.56;5119729;27;45464;-69
2022/06/20 06:25:27;;;;;;;;;18.00;15.00;;;;;20.09;100.00;101082.84;5120194;27;45636;-69
2022/06/20 06:27:56;;;;;;;;;17.67;13.67;;;;;20.08;100.00;101083.78;5116386;27;46309;-69
2022/06/20 06:30:31;;;;;;;;;13.67;13.00;;;;;20.07;100.00;101086.47;5118325;27;45242;-69
2022/06/20 06:33:24;;;;;;;;;18.67;11.67;;;;;20.07;100.00;101089.16;5102014;27;45528;-69
2022/06/20 06:36:12;;;;;;;;;15.00;13.33;;;;;20.05;100.00;101096.34;5095764;27;45541;-70
2022/06/20 06:38:46;;;;;;;;;8.00;8.00;;;;;20.03;100.00;101103.56;5112975;27;47453;-70
2022/06/20 06:41:17;;;;;;;;;14.33;11.67;;;;;20.04;100.00;101094.59;5117096;27;45490;-70
2022/06/20 06:43:44;;;;;;;;;12.67;11.33;;;;;20.04;100.00;101102.63;5119571;27;45548;-71
2022/06/20 06:46:34;;;;;;;;;14.67;12.67;;;;;20.02;100.00;101102.66;5115039;27;45493;-71
2022/06/20 06:49:20;;;;;;;;;12.67;12.00;;;;;20.07;100.00;101105.22;5115031;27;46387;-71
2022/06/20 06:51:53;;;;;;;;;15.67;12.67;;;;;20.09;100.00;101103.41;5100921;27;45572;-70
2022/06/20 06:54:23;;;;;;;;;17.67;13.33;;;;;20.04;100.00;101103.53;5114234;27;45417;-71
2022/06/20 06:57:04;;;;;;;;;22.67;14.33;;;;;20.00;100.00;101104.50;5104618;27;45315;-70
2022/06/20 06:59:41;;;;;;;;;12.33;11.00;;;;;19.94;100.00;101118.06;5116675;27;46783;-70
2022/06/20 07:02:13;;;;;;;;;14.67;12.33;;;;;19.88;100.00;101120.88;5117702;27;45267;-71
2022/06/20 07:04:55;;;;;;;;;16.00;14.33;;;;;19.83;100.00;101123.66;5095785;27;45502;-70
2022/06/20 07:07:29;;;;;;;;;15.00;13.00;;;;;19.78;100.00;101136.28;5098156;27;46298;-70
2022/06/20 07:09:55;;;;;;;;;17.67;13.67;;;;;19.75;100.00;101132.78;5117206;27;46506;-71
2022/06/20 07:12:24;;;;;;;;;19.33;14.00;;;;;19.71;100.00;101134.66;5100267;27;45493;-73
2022/06/20 07:15:17;;;;;;;;;16.33;14.33;;;;;19.69;100.00;101141.81;5119538;27;45469;-72
2022/06/20 07:17:57;;;;;;;;;17.00;15.67;;;;;19.62;100.00;101143.75;5114518;27;45320;-73
2022/06/20 07:20:30;;;;;;;;;23.33;17.33;;;;;19.58;100.00;101147.38;5113037;27;47473;-73
2022/06/20 07:22:58;;;;;;;;;24.33;19.67;;;;;19.56;100.00;101151.91;5094968;27;45485;-73
2022/06/20 07:25:34;;;;;;;;;19.33;15.00;;;;;19.52;100.00;101149.31;5095191;27;45607;-73
2022/06/20 07:28:14;;;;;;;;;18.00;15.67;;;;;19.45;100.00;101145.00;5100736;27;46041;-71
2022/06/20 07:30:47;;;;;;;;;17.33;14.67;;;;;19.44;100.00;101156.59;5100434;27;47453;-73
2022/06/20 07:33:19;;;;;;;;;20.00;17.67;;;;;19.39;100.00;101172.78;5099317;27;45856;-73
2022/06/20 07:35:48;;;;;;;;;17.33;14.67;;;;;19.33;100.00;101168.44;5118511;27;45641;-73
2022/06/20 07:38:31;;;;;;;;;20.33;15.33;;;;;19.28;100.00;101173.00;5117237;27;45571;-73
2022/06/20 07:41:20;;;;;;;;;21.00;19.67;;;;;19.26;100.00;101180.16;5112541;27;46533;-73
2022/06/20 07:43:54;;;;;;;;;18.00;17.00;;;;;19.26;100.00;101179.28;5114676;27;45543;-73
2022/06/20 07:46:41;;;;;;;;;25.00;21.00;;;;;19.25;100.00;101194.47;5100575;27;45410;-71
2022/06/20 07:49:16;;;;;;;;;20.00;20.00;;;;;19.24;100.00;101183.81;5117296;27;46327;-73
2022/06/20 07:51:43;;;;;;;;;20.33;17.33;;;;;19.21;100.00;101187.41;5101916;27;47627;-73
2022/06/20 07:54:16;;;;;;;;;22.50;22.00;;;;;19.20;100.00;101191.00;5096489;27;45614;-73
2022/06/20 07:56:48;;;;;;;;;28.33;22.33;;;;;19.19;100.00;101186.56;5117218;27;45476;-73
2022/06/20 07:59:27;;;;;;;;;22.67;21.33;;;;;19.18;100.00;101190.16;5116242;27;45310;-73
2022/06/20 08:02:06;;;;;;;;;19.33;19.33;;;;;19.16;100.00;101193.75;5116692;27;45672;-73
2022/06/20 08:04:33;;;;;;;;;22.67;21.33;;;;;19.14;100.00;101193.78;5098516;27;45478;-72
2022/06/20 08:07:08;;;;;;;;;22.67;15.67;;;;;19.14;100.00;101191.13;5113870;27;45591;-72
2022/06/20 08:10:03;;;;;;;;;23.00;16.33;;;;;19.20;100.00;101199.03;5112005;27;45671;-73
2022/06/20 08:12:54;;;;;;;;;22.67;17.00;;;;;19.22;100.00;101202.56;5094922;27;47452;-72
2022/06/20 08:15:36;;;;;;;;;18.33;17.33;;;;;19.22;100.00;101199.88;5098272;27;45405;-72
2022/06/20 08:18:01;;;;;;;;;20.33;17.00;;;;;19.25;100.00;101189.13;5102927;27;45405;-73
2022/06/20 08:20:31;;;;;;;;;22.67;16.33;;;;;19.28;100.00;101194.44;5098205;27;45450;-72
2022/06/20 08:23:02;;;;;;;;;19.33;18.67;;;;;19.32;100.00;101193.44;5115945;27;47476;-73
2022/06/20 08:25:34;;;;;;;;;25.33;17.00;;;;;19.40;100.00;101187.94;5098946;27;45329;-72
2022/06/20 08:28:10;;;;;;;;;18.67;16.67;;;;;19.49;100.00;101192.22;5098949;27;45648;-72
2022/06/20 08:30:53;;;;;;;;;20.33;19.33;;;;;19.55;100.00;101190.31;5099393;27;45445;-73
2022/06/20 08:34:00;;;;;;;;;23.33;17.00;;;;;19.61;100.00;101192.91;5116318;27;46537;-72
2022/06/20 08:36:35;;;;;;;;;25.00;17.67;;;;;19.72;100.00;101190.00;5097566;27;45555;-75
2022/06/20 08:39:28;;;;;;;;;19.00;16.33;;;;;19.94;100.00;101190.41;5095906;27;45533;-74
2022/06/20 08:42:15;;;;;;;;;22.33;16.00;;;;;20.12;100.00;101187.31;5098318;27;45649;-73
2022/06/20 08:45:03;;;;;;;;;18.33;15.00;;;;;20.29;100.00;101186.03;5120615;27;47264;-73
2022/06/20 08:48:03;;;;;;;;;17.00;15.33;;;;;20.46;100.00;101188.34;5064630;27;45767;-74
2022/06/20 08:50:44;;;;;;;;;20.00;16.33;;;;;20.60;100.00;101191.59;5115310;27;45389;-74
2022/06/20 08:53:33;;;;;;;;;21.00;15.67;;;;;20.71;100.00;101202.06;5116053;27;46004;-74
2022/06/20 08:56:32;;;;;;;;;26.67;21.67;;;;;20.83;100.00;101208.00;5115315;27;47683;-74
2022/06/20 08:59:09;;;;;;;;;18.67;18.00;;;;;20.93;100.00;101214.91;5096023;27;45518;-74
2022/06/20 09:02:04;;;;;;;;;16.33;15.00;;;;;21.02;100.00;101208.41;5095480;27;45537;-74
2022/06/20 09:04:50;;;;;;;;;16.33;14.67;;;;;21.10;100.00;101214.47;5105247;27;46820;-74
2022/06/20 09:07:22;;;;;;;;;17.67;15.00;;;;;21.13;100.00;101218.84;5114363;27;46665;-74
2022/06/20 09:10:10;;;;;;;;;16.67;15.00;;;;;21.17;100.00;101220.56;5097278;27;45589;-75
2022/06/20 09:12:54;;;;;;;;;18.33;15.67;;;;;21.22;100.00;101236.53;5094189;27;45474;-74
2022/06/20 09:15:34;;;;;;;;;21.33;15.00;;;;;21.21;100.00;101235.66;5112390;27;45371;-75
2022/06/20 09:18:29;;;;;;;;;16.33;14.33;;;;;21.24;100.00;101240.94;5097118;27;47486;-74
2022/06/20 09:21:03;;;;;;;;;20.67;16.00;;;;;21.26;100.00;101241.81;5079157;27;45517;-74
2022/06/20 09:23:57;;;;;;;;;23.00;15.33;;;;;21.27;100.00;101237.31;5112047;27;45484;-75
2022/06/20 09:26:37;;;;;;;;;18.33;18.33;;;;;21.29;100.00;101236.31;5098119;27;45300;-73
2022/06/20 09:29:14;;;;;;;;;18.33;16.67;;;;;21.34;100.00;101239.81;5116467;27;46624;-73
2022/06/20 09:31:46;;;;;;;;;18.00;15.33;;;;;21.43;100.00;101230.63;5109081;27;45459;-75
2022/06/20 09:34:28;;;;;;;;;29.67;18.00;;;;;21.53;100.00;101232.13;5103512;27;45473;-74
2022/06/20 09:36:56;;;;;;;;;17.67;15.33;;;;;21.65;100.00;101247.03;5093635;27;45440;-75
2022/06/20 09:40:03;;;;;;;;;17.00;13.67;;;;;21.74;100.00;101253.97;5115924;27;46588;-72
2022/06/20 09:42:42;;;;;;;;;20.00;17.67;;;;;21.82;100.00;101257.28;5041988;27;45505;-75
2022/06/20 09:45:16;;;;;;;;;20.33;16.00;;;;;21.87;100.00;101255.34;5096391;27;45390;-74
2022/06/20 09:48:01;;;;;;;;;10.00;10.00;;;;;21.95;100.00;101256.91;5116223;27;45418;-73
2022/06/20 09:50:44;;;;;;;;;17.00;14.33;;;;;22.06;100.00;101259.28;5096939;27;47335;-74
2022/06/20 09:53:32;;;;;;;;;18.67;16.00;;;;;22.15;100.00;101245.56;5115348;27;45507;-74
2022/06/20 09:56:12;;;;;;;;;15.00;13.00;;;;;22.30;100.00;101257.66;5111799;27;45488;-74
2022/06/20 09:58:43;;;;;;;;;20.67;14.67;;;;;22.42;100.00;101259.97;5111649;27;45540;-75
2022/06/20 10:01:20;;;;;;;;;14.67;14.00;;;;;22.49;99.30;101255.31;5110355;27;45642;-74
2022/06/20 10:04:03;;;;;;;;;14.33;13.00;;;;;22.55;98.65;101249.72;5112787;27;45492;-72
2022/06/20 10:06:55;;;;;;;;;17.67;16.00;;;;;22.56;98.35;101246.09;5097910;27;45485;-72
2022/06/20 10:09:52;;;;;;;;;13.67;13.67;;;;;22.62;98.12;101258.47;5108860;27;45411;-74
2022/06/20 10:12:37;;;;;;;;;17.00;15.33;;;;;22.63;97.79;101261.09;5076761;27;46328;-75
2022/06/20 10:15:23;;;;;;;;;14.33;11.67;;;;;22.77;97.70;101254.41;5116513;27;45477;-75
2022/06/20 10:18:03;;;;;;;;;13.67;13.67;;;;;22.90;97.09;101261.16;5113458;27;45357;-74
2022/06/20 10:20:41;;;;;;;;;11.67;11.33;;;;;23.03;96.34;101258.97;5109342;27;45449;-73
2022/06/20 10:23:27;;;;;;;;;16.33;14.33;;;;;23.16;95.34;101255.78;5109183;27;47610;-75
2022/06/20 10:26:17;;;;;;;;;12.00;12.00;;;;;23.34;95.03;101256.97;5109954;27;45417;-74
2022/06/20 10:28:55;;;;;;;;;18.00;13.00;;;;;23.57;94.60;101249.88;5115570;27;45536;-74
2022/06/20 10:31:32;;;;;;;;;12.67;11.00;;;;;23.72;94.57;101262.84;5115350;27;45535;-74
2022/06/20 10:34:10;;;;;;;;;10.33;10.33;;;;;23.83;93.64;101262.44;5118710;27;46581;-75
2022/06/20 10:36:38;;;;;;;;;14.00;10.00;;;;;23.95;93.56;101260.16;5119677;27;45417;-74
2022/06/20 10:39:09;;;;;;;;;14.67;11.00;;;;;24.07;91.96;101257.91;5119588;27;45449;-74
2022/06/20 10:41:59;;;;;;;;;11.00;11.00;;;;;24.16;91.70;101258.44;5106647;27;45296;-74
2022/06/20 10:44:43;;;;;;;;;9.00;6.67;;;;;24.30;90.98;101266.03;5102160;27;47226;-74
2022/06/20 10:47:24;;;;;;;;;19.00;11.33;;;;;24.42;90.79;101257.47;5114060;27;45501;-75
2022/06/20 10:50:04;;;;;;;;;11.33;9.00;;;;;24.54;90.74;101256.09;5085851;27;45509;-74
2022/06/20 10:52:33;;;;;;;;;18.00;14.00;;;;;24.67;90.39;101251.09;5096862;27;45396;-72
2022/06/20 10:55:11;;;;;;;;;15.00;12.00;;;;;24.75;89.71;101257.03;5111971;27;47370;-75
2022/06/20 10:57:54;;;;;;;;;15.33;12.33;;;;;24.75;89.38;101257.91;5096282;27;45536;-75
2022/06/20 11:00:22;;;;;;;;;15.33;12.33;;;;;24.77;88.77;101271.38;5100362;27;46445;-74
2022/06/20 11:03:06;;;;;;;;;14.67;12.67;;;;;24.82;88.73;101270.25;5100087;27;45513;-74
2022/06/20 11:05:50;;;;;;;;;14.33;10.00;;;;;24.89;87.74;101273.56;5118382;27;46670;-73
2022/06/20 11:08:15;;;;;;;;;11.67;8.67;;;;;24.94;87.87;101276.97;5098725;27;45489;-74
2022/06/20 11:10:48;;;;;;;;;13.00;13.00;;;;;25.01;87.34;101282.97;5113970;27;45454;-73
2022/06/20 11:13:19;;;;;;;;;11.67;8.67;;;;;25.05;86.66;101284.63;5118419;27;47190;-72
2022/06/20 11:16:05;;;;;;;;;14.33;11.33;;;;;25.17;87.02;101278.72;5117938;27;46784;-73
2022/06/20 11:19:08;;;;;;;;;13.00;13.00;;;;;25.33;86.79;101265.44;5116579;27;45683;-72
2022/06/20 11:21:48;;;;;;;;;15.67;9.33;;;;;25.55;85.56;101268.06;5099936;27;45613;-72
2022/06/20 11:24:43;;;;;;;;;13.00;10.67;;;;;25.74;85.98;101274.44;5110685;27;45439;-73
2022/06/20 11:27:34;;;;;;;;;9.00;9.00;;;;;25.93;84.76;101282.59;5080674;27;47246;-73
2022/06/20 11:30:07;;;;;;;;;13.67;11.00;;;;;26.00;84.01;101283.22;5089181;27;45560;-73
2022/06/20 11:32:38;;;;;;;;;12.33;9.33;;;;;26.08;83.71;101267.47;5099218;27;45491;-72
2022/06/20 11:35:16;;;;;;;;;10.33;9.00;;;;;26.11;83.32;101278.19;5102315;27;45504;-73
2022/06/20 11:38:02;;;;;;;;;12.33;12.33;;;;;26.07;82.63;101284.69;5112775;27;47311;-72
2022/06/20 11:40:27;;;;;;;;;12.33;9.67;;;;;26.05;82.57;101281.16;5100387;27;45335;-78
2022/06/20 11:43:11;;;;;;;;;16.33;11.67;;;;;26.07;82.75;101272.00;5101976;27;45740;-73
2022/06/20 11:45:57;;;;;;;;;10.33;9.67;;;;;26.18;82.78;101276.06;5116735;27;45455;-73
2022/06/20 11:48:50;;;;;;;;;11.00;9.00;;;;;26.32;81.36;101270.88;5098831;27;46726;-72
2022/06/20 11:51:40;;;;;;;;;14.33;11.00;;;;;26.46;81.15;101278.34;5115245;27;45528;-73
2022/06/20 11:54:27;;;;;;;;;11.67;9.00;;;;;26.60;80.92;101282.16;5115865;27;45536;-73